Sherman, TX

2:59 PM CDT on April 19, 2015 (GMT -0500)
S.W. of Luella 1-1/2 mi | | Change Station
CLOSE
Current Station
Personal Weather Station
Location: Howe, TX
Elevation: 737 ft
Nearby Weather Stations

Elev 737 ft 33.56 °N, 96.57 °W | Updated 8 seconds ago

Mostly Cloudy
Mostly Cloudy
69.3 °F
Feels Like 69.3 °F
N
0.0
Wind Variable Wind from WSW
Gusts 0.0 mph

Today
High -- | Low -- °F
--% Chance of Precip.
Yesterday
High -- | Low -- °F
Precip. -- in
6:51 AM 8:00 PM
New Moon, 2% visible
Pressure 29.74 in
Visibility 10.0 miles
Clouds Scattered Clouds 2800 ft
Scattered Clouds 3900 ft
Dew Point 59 °F
Humidity 69%
Rainfall 0.58 in
Snow Depth Not available.
UV 8 out of 12
Pollen 9.80 out of 12
Air Quality Not available.
Flu Activity Local Activity
METAR KGYI 191935Z AUTO 27011G16KT 10SM SCT028 SCT039 22/17 A2974 RMK AO2 T02200168

More Conditions Fewer Conditions

Pressure 29.74 in
Visibility 10.0 miles
Clouds Scattered Clouds 2800 ft
Scattered Clouds 3900 ft
Dew Point 59 °F
Humidity 69%
Rainfall 0.58 in
Snow Depth Not available.
UV 8 out of 12
Pollen 9.80 out of 12
Air Quality Not available.
Flu Activity Local Activity
METAR KGYI 191935Z AUTO 27011G16KT 10SM SCT028 SCT039 22/17 A2974 RMK AO2 T02200168

More Conditions Fewer Conditions

10-Day Weather Forecast

Almanac

Astronomy

Apr. 19, 2015 Rise Set
Actual Time
Civil Twilight
Nautical Twilight
Astronomical Twilight
Moon
Length of Visible Light
Length of Day
Tomorrow will be .
, % of the Moon is Illuminated

Today's Extremes

State Highs State Lows

Community

WunderPhotos

Upload Photos

1,814,950 photos uploaded!

WunderBlogs® & News

Nearby

Air Quality

  Air Quality AQ Index Pollutant
Not available.

Snow Depth

Station Depth Elevation

Earthquake Activity

City Distance Mag. Time & Date
Minimum magnitude displayed is 2.5.

Coastal Water Temperatures

Place Temperature

Stations

Nearby Weather Stations

Station Location Temp. Windchill Dew Point Humidity Wind Precip. Elev Updated Type